Time;durP1;ratioP1;P1;durP2;ratioP2;P2;SDS_P1;SDS_P2;PMS_P1;PMS_P2;Temp;Humidity;BMP_temperature;BMP_pressure;BME280_temperature;BME280_humidity;BME280_pressure;Samples;Min_cycle;Max_cycle;Signal;HPM_P1;HPM_P2
2024/02/25 00:00:59;;;;;;;1.95;1.27;;;;;;;6.43;76.99;98458.34;4823167;29;20096;-81
2024/02/25 00:03:26;;;;;;;3.38;1.27;;;;;;;6.44;77.09;98452.19;4840174;29;20093;-82
2024/02/25 00:05:53;;;;;;;1.63;1.27;;;;;;;6.46;77.05;98457.31;4840013;29;20083;-81
2024/02/25 00:08:19;;;;;;;2.22;1.40;;;;;;;6.47;76.93;98453.78;4839793;29;20061;-82
2024/02/25 00:10:46;;;;;;;2.72;1.30;;;;;;;6.48;76.70;98455.44;4839920;29;20058;-83
2024/02/25 00:13:13;;;;;;;2.38;1.30;;;;;;;6.47;76.80;98451.97;4843571;29;20148;-80
2024/02/25 00:15:39;;;;;;;2.45;1.05;;;;;;;6.48;76.88;98445.84;4843583;29;20057;-83
2024/02/25 00:18:06;;;;;;;2.22;1.38;;;;;;;6.49;76.69;98442.28;4827058;29;20061;-80
2024/02/25 00:20:33;;;;;;;1.75;1.10;;;;;;;6.50;76.58;98445.72;4843535;29;20573;-81
2024/02/25 00:23:00;;;;;;;4.30;1.30;;;;;;;6.51;76.90;98445.63;4843192;29;20547;-84
2024/02/25 00:25:26;;;;;;;3.28;1.50;;;;;;;6.52;76.57;98449.09;4843314;29;20089;-81
2024/02/25 00:27:53;;;;;;;3.67;1.30;;;;;;;6.51;76.42;98443.03;4826877;29;20065;-80
2024/02/25 00:30:19;;;;;;;1.95;1.17;;;;;;;6.51;76.11;98442.19;4827062;29;20077;-83
2024/02/25 00:32:46;;;;;;;2.38;1.15;;;;;;;6.51;76.51;98450.03;4826916;29;20081;-81
2024/02/25 00:35:13;;;;;;;4.55;1.27;;;;;;;6.50;76.36;98438.72;4843455;29;20153;-80
2024/02/25 00:37:44;;;;;;;1.20;0.85;;;;;;;6.51;76.48;98450.88;4842958;29;20149;-83
2024/02/25 00:40:10;;;;;;;1.85;0.80;;;;;;;6.51;76.18;98450.88;4843349;29;20069;-82
2024/02/25 00:42:37;;;;;;;1.88;1.00;;;;;;;6.49;75.90;98447.53;4826558;29;20062;-81
2024/02/25 00:45:04;;;;;;;1.83;0.93;;;;;;;6.50;76.19;98450.94;4843339;29;20058;-80
2024/02/25 00:47:32;;;;;;;1.92;1.00;;;;;;;6.50;75.98;98443.09;4843618;29;20058;-84
2024/02/25 00:50:02;;;;;;;2.50;1.13;;;;;;;6.49;76.00;98438.81;4842887;29;20122;-81
2024/02/25 00:52:31;;;;;;;1.88;1.10;;;;;;;6.48;76.25;98445.84;4826508;29;20587;-83
2024/02/25 00:54:59;;;;;;;1.73;1.13;;;;;;;6.46;76.32;98434.63;4842781;29;20097;-80
2024/02/25 00:57:26;;;;;;;1.85;0.98;;;;;;;6.46;76.02;98437.25;4842810;29;20142;-81
2024/02/25 00:59:52;;;;;;;2.88;0.90;;;;;;;6.45;76.05;98440.78;4842976;29;20126;-82
2024/02/25 01:02:19;;;;;;;1.35;0.90;;;;;;;6.45;76.32;98448.63;4842669;29;20141;-81
2024/02/25 01:04:46;;;;;;;2.25;1.10;;;;;;;6.43;75.74;98440.03;4843064;29;20061;-82
2024/02/25 01:07:12;;;;;;;2.88;1.10;;;;;;;6.43;76.23;98429.56;4826166;29;20138;-81
2024/02/25 01:09:39;;;;;;;2.67;1.10;;;;;;;6.42;76.19;98427.91;4842501;29;20119;-79
2024/02/25 01:12:06;;;;;;;2.00;0.93;;;;;;;6.43;76.61;98423.53;4842364;29;20070;-82
2024/02/25 01:14:33;;;;;;;2.63;0.93;;;;;;;6.42;76.60;98424.47;4826278;29;20457;-82
2024/02/25 01:17:00;;;;;;;2.50;0.75;;;;;;;6.43;76.79;98418.31;4842549;29;20080;-81
2024/02/25 01:19:26;;;;;;;1.27;0.90;;;;;;;6.44;76.59;98412.13;4842271;29;20536;-83
2024/02/25 01:21:53;;;;;;;4.10;1.20;;;;;;;6.44;76.59;98412.13;4842282;29;20504;-82
2024/02/25 01:24:19;;;;;;;1.80;0.90;;;;;;;6.46;76.99;98408.47;4842221;29;20096;-81
2024/02/25 01:26:46;;;;;;;1.00;0.80;;;;;;;6.48;76.65;98411.00;4826317;29;20089;-80
2024/02/25 01:29:12;;;;;;;1.98;0.93;;;;;;;6.49;76.74;98402.22;4825573;29;20065;-80
2024/02/25 01:31:46;;;;;;;2.50;1.20;;;;;;;6.49;76.17;98402.22;4842624;29;20057;-85
2024/02/25 01:34:13;;;;;;;1.33;0.80;;;;;;;6.53;76.60;98397.66;4842342;29;20171;-82
2024/02/25 01:36:41;;;;;;;2.22;0.88;;;;;;;6.55;77.15;98399.25;4842336;29;20440;-80
2024/02/25 01:39:08;;;;;;;0.90;0.70;;;;;;;6.57;77.34;98394.75;4842042;29;20050;-83
2024/02/25 01:41:35;;;;;;;1.02;0.70;;;;;;;6.60;77.01;98389.34;4842504;29;20050;-80
2024/02/25 01:44:01;;;;;;;1.60;0.70;;;;;;;6.63;77.28;98383.06;4842067;29;20062;-83
2024/02/25 01:46:28;;;;;;;2.30;0.90;;;;;;;6.67;77.12;98391.53;4841983;29;20061;-81
2024/02/25 01:48:55;;;;;;;3.03;1.13;;;;;;;6.70;77.28;98378.28;4841793;29;20137;-84
2024/02/25 01:51:24;;;;;;;1.00;0.90;;;;;;;6.72;76.90;98379.88;4825376;29;20062;-81
2024/02/25 01:53:51;;;;;;;3.00;1.17;;;;;;;6.77;77.37;98374.34;4825523;29;20090;-83
2024/02/25 01:56:17;;;;;;;2.35;1.00;;;;;;;6.81;77.18;98375.00;4841784;29;20427;-81
2024/02/25 01:58:46;;;;;;;1.67;0.88;;;;;;;6.83;76.67;98373.94;4825068;29;20128;-80
2024/02/25 02:01:14;;;;;;;1.10;0.90;;;;;;;6.86;76.86;98367.69;4841719;29;20094;-83
2024/02/25 02:03:41;;;;;;;4.18;1.00;;;;;;;6.89;76.57;98367.50;4825661;29;20084;-82
2024/02/25 02:06:09;;;;;;;1.65;0.80;;;;;;;6.90;76.44;98354.31;4841545;29;20069;-80
2024/02/25 02:08:37;;;;;;;1.40;0.85;;;;;;;6.95;76.87;98358.41;4841403;29;20559;-81
2024/02/25 02:11:17;;;;;;;1.35;0.75;;;;;;;6.93;74.08;98368.97;4841446;29;20103;-81
2024/02/25 02:13:47;;;;;;;1.13;0.70;;;;;;;6.97;75.60;98370.47;4841629;29;20102;-82
2024/02/25 02:16:15;;;;;;;1.13;0.75;;;;;;;7.00;76.42;98358.97;4825025;29;20072;-83
2024/02/25 02:18:43;;;;;;;1.65;0.90;;;;;;;7.02;76.39;98362.28;4824939;29;20072;-82
2024/02/25 02:21:14;;;;;;;1.98;0.90;;;;;;;7.03;76.43;98353.53;4841607;29;20424;-83
2024/02/25 02:23:41;;;;;;;0.90;0.80;;;;;;;7.05;76.34;98346.41;4841496;29;20479;-81
2024/02/25 02:26:07;;;;;;;1.20;0.98;;;;;;;7.05;76.15;98346.41;4841371;29;20052;-80
2024/02/25 02:28:34;;;;;;;3.42;1.27;;;;;;;7.06;76.41;98347.25;4824602;29;20050;-82
2024/02/25 02:31:00;;;;;;;1.88;0.82;;;;;;;7.06;76.38;98347.25;4824845;29;20064;-81
2024/02/25 02:33:27;;;;;;;1.00;0.95;;;;;;;7.04;76.12;98334.28;4833822;29;20552;-84
2024/02/25 02:35:54;;;;;;;1.48;0.80;;;;;;;7.05;76.10;98330.72;4824680;29;20095;-80
2024/02/25 02:38:21;;;;;;;4.10;1.05;;;;;;;7.05;76.36;98341.19;4840944;29;20062;-81
2024/02/25 02:40:47;;;;;;;1.70;1.00;;;;;;;7.07;76.39;98339.31;4841095;29;20058;-84
2024/02/25 02:43:14;;;;;;;2.38;1.02;;;;;;;7.04;76.11;98340.31;4840825;29;20130;-80
2024/02/25 02:45:41;;;;;;;3.58;1.10;;;;;;;7.05;76.24;98330.72;4840899;29;20085;-80
2024/02/25 02:48:09;;;;;;;2.03;0.82;;;;;;;7.07;76.57;98326.22;4840840;29;20115;-81
2024/02/25 02:50:36;;;;;;;1.40;1.00;;;;;;;7.06;76.28;98327.16;4824767;29;20085;-81
2024/02/25 02:53:03;;;;;;;1.05;0.65;;;;;;;7.08;76.13;98319.19;4824610;29;20061;-82
2024/02/25 02:55:30;;;;;;;1.67;0.80;;;;;;;7.08;76.44;98317.44;4824595;29;20465;-81
2024/02/25 02:57:57;;;;;;;1.98;0.75;;;;;;;7.08;76.29;98320.06;4824326;29;20054;-80
2024/02/25 03:00:24;;;;;;;0.80;0.70;;;;;;;7.08;75.96;98327.91;4840579;29;20491;-82
2024/02/25 03:02:51;;;;;;;1.92;1.00;;;;;;;7.08;76.41;98327.91;4840765;29;20145;-80
2024/02/25 03:05:17;;;;;;;2.92;0.98;;;;;;;7.08;76.45;98308.72;4840547;29;20059;-80
2024/02/25 03:07:49;;;;;;;1.75;0.95;;;;;;;7.08;76.30;98320.06;4824277;29;20050;-81
2024/02/25 03:10:17;;;;;;;1.40;0.80;;;;;;;7.08;76.18;98319.19;4840826;29;20050;-81
2024/02/25 03:12:44;;;;;;;4.28;0.90;;;;;;;7.09;76.22;98326.09;4824300;29;20056;-83
2024/02/25 03:15:12;;;;;;;3.40;1.08;;;;;;;7.08;76.68;98316.59;4840596;29;20072;-83
2024/02/25 03:17:40;;;;;;;4.07;0.93;;;;;;;7.07;76.27;98321.00;4824105;29;20054;-88
2024/02/25 03:20:08;;;;;;;1.70;1.00;;;;;;;7.09;76.41;98321.72;4824265;29;20385;-80
2024/02/25 03:22:37;;;;;;;1.17;0.88;;;;;;;7.05;75.49;98320.25;4840436;29;20054;-82
2024/02/25 03:25:08;;;;;;;2.40;1.35;;;;;;;7.08;76.14;98312.19;4824152;29;20056;-80
2024/02/25 03:27:36;;;;;;;2.22;1.17;;;;;;;7.06;76.61;98306.22;4833916;29;20140;-81
2024/02/25 03:30:07;;;;;;;1.70;1.10;;;;;;;7.04;75.60;98308.94;4840357;29;20053;-81
2024/02/25 03:32:34;;;;;;;4.88;0.82;;;;;;;7.06;77.04;98306.22;4840489;29;20050;-84
2024/02/25 03:35:01;;;;;;;2.92;0.80;;;;;;;7.07;76.58;98312.28;4840162;29;20118;-81
2024/02/25 03:37:28;;;;;;;1.27;0.98;;;;;;;7.08;76.99;98314.81;4824087;29;20061;-80
2024/02/25 03:39:54;;;;;;;2.20;0.93;;;;;;;7.09;76.73;98311.25;4840044;29;20057;-83
2024/02/25 03:42:23;;;;;;;1.75;1.00;;;;;;;7.11;76.87;98319.00;4840185;29;20068;-80
2024/02/25 03:44:50;;;;;;;1.10;1.00;;;;;;;7.11;77.02;98313.78;4840132;29;20053;-80
2024/02/25 03:47:16;;;;;;;1.17;0.80;;;;;;;7.13;76.95;98311.88;4823969;29;20110;-82
2024/02/25 03:49:43;;;;;;;1.00;0.85;;;;;;;7.13;76.89;98315.34;4839948;29;20081;-81
2024/02/25 03:52:09;;;;;;;2.92;1.02;;;;;;;7.14;77.13;98309.16;4839922;29;20522;-80
2024/02/25 03:54:36;;;;;;;0.80;0.80;;;;;;;7.15;76.86;98312.63;4840038;29;20061;-80
2024/02/25 03:57:03;;;;;;;2.15;0.90;;;;;;;7.14;76.72;98306.53;4840119;29;20057;-81
2024/02/25 03:59:30;;;;;;;0.82;0.82;;;;;;;7.14;77.08;98324.03;4839975;29;20061;-82
2024/02/25 04:01:56;;;;;;;1.42;1.00;;;;;;;7.13;76.83;98319.72;4839983;29;20061;-80
2024/02/25 04:04:23;;;;;;;3.38;1.13;;;;;;;7.10;76.59;98312.09;4840132;29;20110;-81
2024/02/25 04:06:50;;;;;;;2.58;1.20;;;;;;;7.10;76.95;98312.09;4839884;29;20062;-80
2024/02/25 04:09:16;;;;;;;2.08;0.80;;;;;;;7.10;77.02;98310.31;4839832;29;20058;-82
2024/02/25 04:11:43;;;;;;;2.13;1.10;;;;;;;7.08;77.11;98301.72;4840153;29;20062;-81
2024/02/25 04:14:10;;;;;;;2.30;1.00;;;;;;;7.09;76.90;98305.16;4839866;29;20555;-82
2024/02/25 04:16:36;;;;;;;1.48;1.10;;;;;;;7.07;77.06;98302.69;4832683;29;20062;-80
2024/02/25 04:19:03;;;;;;;1.23;1.00;;;;;;;7.06;77.12;98303.59;4839754;29;20482;-83
2024/02/25 04:21:29;;;;;;;1.40;0.98;;;;;;;7.07;76.94;98304.44;4823733;29;20145;-80
2024/02/25 04:23:58;;;;;;;1.35;1.15;;;;;;;7.06;77.18;98308.81;4823653;29;20142;-82
2024/02/25 04:26:25;;;;;;;1.48;0.88;;;;;;;7.04;77.15;98303.69;4839866;29;20085;-80
2024/02/25 04:28:52;;;;;;;1.90;1.05;;;;;;;7.05;77.57;98304.53;4839638;29;20064;-84
2024/02/25 04:31:18;;;;;;;2.10;1.17;;;;;;;7.06;77.60;98306.22;4839741;29;20141;-81
2024/02/25 04:33:45;;;;;;;1.27;0.90;;;;;;;7.06;77.72;98300.97;4823439;29;20555;-82
2024/02/25 04:36:18;;;;;;;2.08;1.00;;;;;;;7.06;76.96;98308.00;4839507;29;20496;-81
2024/02/25 04:38:46;;;;;;;3.92;1.20;;;;;;;7.09;77.55;98306.03;4816958;29;20050;-83
2024/02/25 04:41:12;;;;;;;2.47;0.90;;;;;;;7.10;77.69;98312.09;4839676;29;20061;-80
2024/02/25 04:43:39;;;;;;;1.55;0.90;;;;;;;7.08;77.41;98301.72;4832381;29;20457;-82
2024/02/25 04:46:06;;;;;;;2.72;1.10;;;;;;;7.09;77.26;98310.41;4823352;29;20415;-80
2024/02/25 04:48:32;;;;;;;2.10;1.10;;;;;;;7.09;77.22;98316.50;4839275;29;20072;-80
2024/02/25 04:51:00;;;;;;;1.70;1.13;;;;;;;7.07;77.21;98307.91;4839877;29;20072;-82
2024/02/25 04:53:27;;;;;;;1.00;0.80;;;;;;;7.07;77.72;98302.69;4839754;29;20057;-81
2024/02/25 04:55:54;;;;;;;2.28;1.27;;;;;;;7.06;77.40;98306.22;4839740;29;20057;-81
2024/02/25 04:58:21;;;;;;;2.08;1.15;;;;;;;7.08;77.74;98306.97;4841355;29;20065;-82
2024/02/25 05:00:47;;;;;;;1.45;1.10;;;;;;;7.09;77.56;98306.03;4842919;29;20401;-82
2024/02/25 05:03:14;;;;;;;1.05;0.95;;;;;;;7.10;77.57;98304.25;4826292;29;20122;-81
2024/02/25 05:05:40;;;;;;;1.73;1.10;;;;;;;7.10;77.33;98307.69;4842970;29;20572;-82
2024/02/25 05:08:07;;;;;;;2.10;1.00;;;;;;;7.11;77.25;98303.31;4842796;29;20057;-81
2024/02/25 05:10:34;;;;;;;1.10;0.90;;;;;;;7.10;77.11;98302.47;4842835;29;20119;-83
2024/02/25 05:13:00;;;;;;;1.55;1.02;;;;;;;7.10;77.30;98294.59;4842704;29;20118;-81
2024/02/25 05:15:28;;;;;;;2.78;1.27;;;;;;;7.09;77.03;98295.56;4842525;29;20085;-82
2024/02/25 05:17:54;;;;;;;1.85;1.05;;;;;;;7.08;76.98;98288.66;4842442;29;20049;-84
2024/02/25 05:20:21;;;;;;;1.20;1.10;;;;;;;7.07;77.24;98286.97;4842669;29;20149;-81
2024/02/25 05:22:48;;;;;;;2.15;1.10;;;;;;;7.05;76.91;98291.47;4842472;29;20081;-81
2024/02/25 05:25:14;;;;;;;1.70;1.00;;;;;;;7.02;77.13;98296.88;4842588;29;20102;-80
2024/02/25 05:27:41;;;;;;;1.48;1.05;;;;;;;7.02;77.33;98295.13;4842208;29;20144;-82
2024/02/25 05:30:08;;;;;;;2.10;1.20;;;;;;;7.01;77.77;98297.84;4842360;29;20133;-81
2024/02/25 05:32:36;;;;;;;1.50;1.10;;;;;;;7.03;77.57;98295.97;4826087;29;20057;-83
2024/02/25 05:35:05;;;;;;;3.45;1.25;;;;;;;7.02;77.68;98289.03;4842289;29;20069;-81
2024/02/25 05:37:34;;;;;;;2.20;1.30;;;;;;;7.04;77.96;98295.03;4842516;29;20057;-83
2024/02/25 05:40:04;;;;;;;1.85;1.15;;;;;;;7.04;77.07;98302.88;4842332;29;20112;-80
2024/02/25 05:42:31;;;;;;;2.80;1.10;;;;;;;7.07;77.69;98305.28;4842086;29;20448;-81
2024/02/25 05:44:58;;;;;;;3.85;1.00;;;;;;;7.07;77.44;98305.28;4842152;29;20587;-85
2024/02/25 05:47:24;;;;;;;2.40;1.20;;;;;;;7.06;77.54;98298.38;4842025;29;20504;-80
2024/02/25 05:49:51;;;;;;;1.40;0.90;;;;;;;7.09;77.80;98305.16;4842064;29;20064;-80
2024/02/25 05:52:18;;;;;;;1.10;0.98;;;;;;;7.09;77.59;98307.78;4842092;29;20545;-86
2024/02/25 05:54:44;;;;;;;3.13;0.98;;;;;;;7.10;77.62;98310.31;4825978;29;20081;-82
2024/02/25 05:57:11;;;;;;;1.27;1.05;;;;;;;7.12;77.59;98304.97;4825561;29;20088;-82
2024/02/25 05:59:38;;;;;;;2.10;1.10;;;;;;;7.12;77.69;98311.06;4841768;29;20424;-80
2024/02/25 06:02:04;;;;;;;1.70;1.10;;;;;;;7.13;77.55;98314.50;4842292;29;20129;-81
2024/02/25 06:04:33;;;;;;;3.28;1.27;;;;;;;7.12;76.65;98332.00;4825472;29;20058;-83
2024/02/25 06:06:59;;;;;;;2.22;1.10;;;;;;;7.13;77.28;98325.81;4841733;29;20060;-81
2024/02/25 06:09:26;;;;;;;2.28;1.20;;;;;;;7.13;77.61;98328.44;4824163;29;20132;-80
2024/02/25 06:11:52;;;;;;;3.13;1.20;;;;;;;7.14;77.46;98335.34;4825470;29;20089;-80
2024/02/25 06:14:19;;;;;;;1.10;1.00;;;;;;;7.14;77.30;98330.09;4841967;29;20061;-82
2024/02/25 06:16:46;;;;;;;2.03;1.13;;;;;;;7.14;77.38;98330.09;4841725;29;20054;-84
2024/02/25 06:19:12;;;;;;;1.30;1.10;;;;;;;7.15;77.71;98328.34;4841419;29;20130;-81
2024/02/25 06:21:45;;;;;;;4.97;1.38;;;;;;;7.12;76.82;98332.00;4841709;29;20072;-82
2024/02/25 06:24:12;;;;;;;1.77;0.98;;;;;;;7.14;77.53;98334.50;4825061;29;20909;-80
2024/02/25 06:26:43;;;;;;;1.30;0.98;;;;;;;7.13;76.60;98332.81;4825138;29;20058;-81
2024/02/25 06:29:10;;;;;;;3.65;1.35;;;;;;;7.12;77.09;98342.47;4841335;29;20050;-81
2024/02/25 06:31:37;;;;;;;2.03;1.33;;;;;;;7.13;77.48;98335.44;4841219;29;20066;-83
2024/02/25 06:34:04;;;;;;;1.77;1.02;;;;;;;7.13;77.70;98340.66;4841775;29;20547;-81
2024/02/25 06:36:31;;;;;;;2.15;1.23;;;;;;;7.12;77.50;98339.00;4841236;29;20060;-85
2024/02/25 06:38:57;;;;;;;2.80;1.33;;;;;;;7.11;77.59;98342.56;4841270;29;20050;-82
2024/02/25 06:41:24;;;;;;;1.10;1.00;;;;;;;7.10;77.60;98344.31;4840959;29;20053;-81
2024/02/25 06:43:52;;;;;;;1.42;1.20;;;;;;;7.11;77.54;98335.53;4834236;29;20112;-82
2024/02/25 06:46:20;;;;;;;2.42;1.33;;;;;;;7.13;77.81;98344.13;4840959;29;20054;-83
2024/02/25 06:48:47;;;;;;;3.30;1.27;;;;;;;7.15;77.55;98341.41;4840266;29;20049;-84
2024/02/25 06:51:28;;;;;;;3.97;1.10;;;;;;;7.13;76.61;98341.50;4824165;29;20533;-84
2024/02/25 06:53:55;;;;;;;2.08;1.17;;;;;;;7.17;77.50;98348.22;4840600;29;20067;-81
2024/02/25 06:56:22;;;;;;;1.17;1.02;;;;;;;7.19;77.62;98349.91;4840442;29;20058;-85
2024/02/25 06:58:48;;;;;;;2.85;1.42;;;;;;;7.19;77.37;98350.75;4824306;29;20057;-82
2024/02/25 07:01:16;;;;;;;1.13;1.02;;;;;;;7.21;77.66;98348.84;4839545;29;20050;-81
2024/02/25 07:03:44;;;;;;;1.30;1.00;;;;;;;7.21;77.63;98351.47;4839665;29;20058;-83
2024/02/25 07:06:14;;;;;;;1.50;0.90;;;;;;;7.21;77.30;98355.88;4840510;29;20060;-86
2024/02/25 07:08:41;;;;;;;1.42;0.90;;;;;;;7.21;77.79;98355.88;4824052;29;20481;-82
2024/02/25 07:11:15;;;;;;;2.90;1.58;;;;;;;7.19;76.54;98358.59;4824486;29;20141;-82
2024/02/25 07:13:43;;;;;;;1.67;1.20;;;;;;;7.21;77.75;98358.50;4824365;29;20110;-81
2024/02/25 07:16:10;;;;;;;2.63;1.35;;;;;;;7.20;77.78;98354.19;4840584;29;20140;-82
2024/02/25 07:18:36;;;;;;;1.63;1.33;;;;;;;7.19;78.28;98350.75;4840088;29;20149;-82
2024/02/25 07:21:03;;;;;;;2.17;1.60;;;;;;;7.18;78.14;98346.47;4840262;29;20142;-83
2024/02/25 07:23:30;;;;;;;2.35;1.45;;;;;;;7.20;78.52;98352.41;4840617;29;20054;-81
2024/02/25 07:25:57;;;;;;;1.75;1.10;;;;;;;7.22;78.61;98350.53;4824165;29;20077;-82
2024/02/25 07:28:24;;;;;;;1.45;1.30;;;;;;;7.25;78.88;98355.56;4839767;29;20057;-82
2024/02/25 07:30:51;;;;;;;3.47;1.50;;;;;;;7.28;78.56;98351.91;4823482;29;20064;-83
2024/02/25 07:33:17;;;;;;;1.67;1.30;;;;;;;7.30;78.71;98356.09;4839665;29;20141;-81
2024/02/25 07:35:44;;;;;;;4.50;1.63;;;;;;;7.33;78.67;98360.28;4840375;29;20145;-82
2024/02/25 07:38:10;;;;;;;1.60;1.35;;;;;;;7.34;78.82;98361.97;4839985;29;20060;-84
2024/02/25 07:40:37;;;;;;;2.55;1.52;;;;;;;7.37;78.50;98363.56;4840014;29;20158;-82
2024/02/25 07:43:04;;;;;;;1.95;1.30;;;;;;;7.39;78.69;98364.28;4840246;29;20137;-82
2024/02/25 07:45:30;;;;;;;1.60;1.15;;;;;;;7.40;78.51;98360.75;4840091;29;20154;-82
2024/02/25 07:47:57;;;;;;;2.30;1.17;;;;;;;7.42;78.72;98364.94;4823752;29;20548;-82
2024/02/25 07:50:24;;;;;;;3.63;1.20;;;;;;;7.45;78.79;98360.41;4839866;29;20062;-84
2024/02/25 07:52:50;;;;;;;2.88;1.42;;;;;;;7.46;78.59;98365.56;4823438;29;20144;-84
2024/02/25 07:55:17;;;;;;;1.90;1.42;;;;;;;7.48;78.59;98363.66;4839138;29;20085;-80
2024/02/25 07:57:44;;;;;;;1.58;1.13;;;;;;;7.49;78.53;98362.75;4839494;29;20058;-82
2024/02/25 08:00:11;;;;;;;2.35;1.50;;;;;;;7.53;78.71;98365.97;4823625;29;20054;-84
2024/02/25 08:02:38;;;;;;;1.80;1.52;;;;;;;7.55;79.14;98372.78;4840021;29;20058;-84
2024/02/25 08:05:08;;;;;;;1.38;1.23;;;;;;;7.58;78.32;98371.75;4840046;29;20061;-82
2024/02/25 08:07:34;;;;;;;1.92;1.23;;;;;;;7.63;79.06;98371.44;4839923;29;20066;-82
2024/02/25 08:10:02;;;;;;;4.25;1.33;;;;;;;7.66;78.75;98374.69;4839333;29;20640;-83
2024/02/25 08:12:28;;;;;;;3.25;1.50;;;;;;;7.71;78.52;98370.91;4839336;29;20062;-85
2024/02/25 08:14:57;;;;;;;1.52;1.38;;;;;;;7.71;78.61;98374.41;4839302;29;20535;-81
2024/02/25 08:17:24;;;;;;;1.70;1.30;;;;;;;7.76;78.39;98381.91;4823685;29;20082;-82
2024/02/25 08:19:51;;;;;;;3.72;1.20;;;;;;;7.74;77.50;98374.16;4839595;29;20115;-84
2024/02/25 08:22:19;;;;;;;2.17;1.40;;;;;;;7.74;77.37;98378.59;4839725;29;20420;-85
2024/02/25 08:24:46;;;;;;;2.95;1.13;;;;;;;7.73;77.75;98374.28;4839789;29;20141;-82
2024/02/25 08:27:13;;;;;;;2.92;1.10;;;;;;;7.72;77.56;98375.22;4839738;29;20527;-82
2024/02/25 08:29:43;;;;;;;2.10;1.25;;;;;;;7.68;76.91;98380.69;4839748;29;20065;-84
2024/02/25 08:32:10;;;;;;;1.73;1.20;;;;;;;7.68;77.27;98382.44;4840333;29;20068;-83
2024/02/25 08:34:36;;;;;;;1.52;1.20;;;;;;;7.66;77.51;98382.53;4827005;29;20499;-82
2024/02/25 08:37:03;;;;;;;1.90;1.20;;;;;;;7.64;77.17;98384.44;4843339;29;20141;-82
2024/02/25 08:39:30;;;;;;;1.30;1.10;;;;;;;7.62;77.42;98385.50;4843002;29;20611;-84
2024/02/25 08:41:56;;;;;;;1.83;1.10;;;;;;;7.59;77.85;98391.75;4826678;29;20090;-84
2024/02/25 08:44:23;;;;;;;1.92;1.40;;;;;;;7.57;77.55;98388.41;4826642;29;20451;-81
2024/02/25 08:46:49;;;;;;;3.03;1.10;;;;;;;7.54;78.01;98388.59;4826742;29;20062;-82
2024/02/25 08:49:18;;;;;;;2.83;1.23;;;;;;;7.52;78.22;98391.31;4842871;29;20066;-83
2024/02/25 08:51:45;;;;;;;3.33;1.75;;;;;;;7.51;78.41;98386.22;4842925;29;20583;-81
2024/02/25 08:54:12;;;;;;;2.53;1.35;;;;;;;7.48;78.71;98389.84;4826561;29;20058;-81
2024/02/25 08:56:38;;;;;;;2.15;1.08;;;;;;;7.46;78.70;98385.66;4826452;29;20062;-82
2024/02/25 08:59:05;;;;;;;6.15;2.22;;;;;;;7.43;78.57;98389.31;4835378;29;20406;-83
2024/02/25 09:01:31;;;;;;;5.07;1.90;;;;;;;7.40;78.65;98382.50;4842930;29;20066;-81
2024/02/25 09:03:58;;;;;;;3.70;1.85;;;;;;;7.38;78.98;98387.00;4842718;29;20415;-81
2024/02/25 09:06:25;;;;;;;4.95;2.05;;;;;;;7.37;78.83;98381.88;4842583;29;20062;-83
2024/02/25 09:08:52;;;;;;;3.10;1.70;;;;;;;7.35;79.16;98384.59;4842343;29;20057;-81
2024/02/25 09:11:19;;;;;;;2.13;1.55;;;;;;;7.35;79.67;98387.22;4842531;29;20061;-82
2024/02/25 09:13:50;;;;;;;2.20;1.60;;;;;;;7.36;79.45;98385.44;4842674;29;20069;-82
2024/02/25 09:16:17;;;;;;;2.85;1.60;;;;;;;7.36;79.50;98381.03;4842949;29;20065;-82
2024/02/25 09:18:44;;;;;;;2.10;1.50;;;;;;;7.37;79.89;98392.34;4842213;29;20057;-83
2024/02/25 09:21:11;;;;;;;2.05;1.17;;;;;;;7.37;79.50;98387.94;4842421;29;20058;-81
2024/02/25 09:23:38;;;;;;;1.95;1.27;;;;;;;7.40;79.77;98398.22;4842188;29;20065;-81
2024/02/25 09:26:08;;;;;;;1.73;1.40;;;;;;;7.40;79.70;98397.41;4842327;29;20082;-82
2024/02/25 09:28:35;;;;;;;4.45;1.35;;;;;;;7.42;80.12;98383.25;4842026;29;20113;-83
2024/02/25 09:31:02;;;;;;;2.13;1.50;;;;;;;7.43;80.08;98381.47;4842540;29;20141;-81
2024/02/25 09:33:34;;;;;;;2.47;1.27;;;;;;;7.47;80.31;98387.34;4825668;29;20092;-82
2024/02/25 09:36:01;;;;;;;1.95;1.55;;;;;;;7.49;80.26;98388.06;4842167;29;20069;-83
2024/02/25 09:38:27;;;;;;;2.60;1.20;;;;;;;7.52;80.75;98390.50;4842156;29;20511;-82
2024/02/25 09:41:01;;;;;;;1.38;1.10;;;;;;;7.55;80.06;98390.28;4825904;29;20481;-81
2024/02/25 09:43:29;;;;;;;2.08;1.52;;;;;;;7.61;80.90;98389.03;4842290;29;20154;-81
2024/02/25 09:45:57;;;;;;;2.92;1.55;;;;;;;7.66;80.96;98393.03;4841865;29;20050;-83
2024/02/25 09:48:24;;;;;;;3.03;1.33;;;;;;;7.73;81.88;98393.44;4841915;29;20127;-83
2024/02/25 09:50:53;;;;;;;1.38;1.27;;;;;;;7.80;81.72;98394.72;4825201;29;20054;-84
2024/02/25 09:53:21;;;;;;;2.10;1.30;;;;;;;7.88;82.15;98398.59;4825912;29;20057;-81
2024/02/25 09:55:49;;;;;;;2.15;1.63;;;;;;;7.96;81.39;98393.66;4825580;29;20057;-85
2024/02/25 09:58:16;;;;;;;1.60;1.50;;;;;;;8.03;81.19;98402.78;4841752;29;20054;-80
2024/02/25 10:00:44;;;;;;;3.13;1.55;;;;;;;8.08;81.23;98392.81;4842210;29;20069;-83
2024/02/25 10:03:14;;;;;;;2.42;1.15;;;;;;;8.15;80.81;98395.84;4825298;29;20492;-82
2024/02/25 10:05:40;;;;;;;3.58;1.33;;;;;;;8.21;80.61;98394.59;4841916;29;20058;-81
2024/02/25 10:08:10;;;;;;;1.88;1.50;;;;;;;8.25;80.36;98393.44;4824968;29;20050;-83
2024/02/25 10:10:41;;;;;;;2.53;1.60;;;;;;;8.28;80.13;98398.50;4825161;29;20061;-83
2024/02/25 10:13:08;;;;;;;1.70;1.52;;;;;;;8.32;80.22;98391.22;4825289;29;20510;-82
2024/02/25 10:15:36;;;;;;;3.45;1.50;;;;;;;8.36;80.44;98390.06;4841524;29;20089;-84
2024/02/25 10:18:03;;;;;;;2.63;1.65;;;;;;;8.41;80.98;98385.34;4841633;29;20058;-82
2024/02/25 10:20:30;;;;;;;2.80;1.55;;;;;;;8.46;80.71;98391.09;4841462;29;20526;-83
2024/02/25 10:23:07;;;;;;;3.33;1.92;;;;;;;8.50;79.23;98396.97;4841375;29;20104;-81
2024/02/25 10:25:35;;;;;;;1.40;1.30;;;;;;;8.58;79.49;98401.72;4825074;29;20058;-85
2024/02/25 10:28:12;;;;;;;1.92;1.65;;;;;;;8.59;78.44;98396.34;4824780;29;20522;-84
2024/02/25 10:30:39;;;;;;;1.92;1.40;;;;;;;8.65;79.10;98397.72;4825396;29;20447;-82
2024/02/25 10:33:15;;;;;;;2.60;1.38;;;;;;;8.60;74.63;98387.53;4841619;29;20145;-81
2024/02/25 10:35:43;;;;;;;1.45;1.30;;;;;;;8.67;78.13;98397.63;4841541;29;20145;-82
2024/02/25 10:38:12;;;;;;;3.15;1.60;;;;;;;8.66;78.25;98402.00;4824893;29;20054;-82
2024/02/25 10:40:42;;;;;;;1.52;1.30;;;;;;;8.67;77.63;98387.13;4841304;29;20058;-83
2024/02/25 10:43:12;;;;;;;2.00;1.38;;;;;;;8.67;77.58;98397.63;4839642;29;20089;-83
2024/02/25 10:45:41;;;;;;;1.60;1.35;;;;;;;8.68;77.60;98404.53;4841284;29;20058;-81
2024/02/25 10:48:11;;;;;;;2.85;1.40;;;;;;;8.66;76.76;98402.00;4839098;29;20050;-82
2024/02/25 10:50:40;;;;;;;2.33;1.30;;;;;;;8.65;77.43;98413.47;4824186;29;20093;-81
2024/02/25 10:53:12;;;;;;;1.30;1.20;;;;;;;8.60;76.52;98407.69;4840451;29;20070;-83
2024/02/25 10:55:40;;;;;;;2.15;1.50;;;;;;;8.59;77.87;98401.59;4824407;29;20058;-81
2024/02/25 10:58:12;;;;;;;2.63;1.60;;;;;;;8.57;77.97;98400.03;4824420;29;20050;-81
2024/02/25 11:00:40;;;;;;;2.97;1.47;;;;;;;8.56;78.06;98396.56;4824950;29;20054;-81
2024/02/25 11:03:08;;;;;;;5.20;1.50;;;;;;;8.55;78.69;98402.78;4841033;29;20303;-82
2024/02/25 11:05:35;;;;;;;4.13;1.48;;;;;;;8.57;78.67;98410.53;4840712;29;20520;-82
2024/02/25 11:08:02;;;;;;;1.60;1.38;;;;;;;8.55;78.67;98404.53;4840895;29;20216;-84
2024/02/25 11:10:33;;;;;;;2.70;1.60;;;;;;;8.53;77.81;98409.06;4840764;29;20158;-82
2024/02/25 11:13:02;;;;;;;2.47;1.70;;;;;;;8.52;78.26;98413.44;4841058;29;20058;-81
2024/02/25 11:15:32;;;;;;;3.13;1.88;;;;;;;8.52;78.65;98402.94;4840582;29;20529;-81
2024/02/25 11:18:03;;;;;;;2.13;1.90;;;;;;;8.51;78.60;98397.81;4839413;29;20107;-82
2024/02/25 11:20:32;;;;;;;1.65;1.55;;;;;;;8.52;79.70;98399.50;4824610;29;20054;-81
2024/02/25 11:22:59;;;;;;;2.28;2.00;;;;;;;8.53;79.21;98401.19;4824335;29;20062;-81
2024/02/25 11:25:25;;;;;;;3.00;1.70;;;;;;;8.52;79.25;98395.06;4840406;29;20064;-82
2024/02/25 11:28:01;;;;;;;1.77;1.60;;;;;;;8.51;79.08;98406.53;4840382;29;20539;-81
2024/02/25 11:30:45;;;;;;;2.60;1.98;;;;;;;8.48;78.29;98407.56;4840224;29;20587;-82
2024/02/25 11:33:25;;;;;;;2.35;1.70;;;;;;;8.48;78.50;98410.19;4824334;29;20478;-81
2024/02/25 11:35:55;;;;;;;2.13;1.88;;;;;;;8.52;79.37;98404.75;4824221;29;20065;-83
2024/02/25 11:38:23;;;;;;;2.63;2.20;;;;;;;8.52;79.41;98404.75;4839969;29;20062;-82
2024/02/25 11:40:50;;;;;;;2.17;1.98;;;;;;;8.51;79.31;98400.44;4823816;29;20100;-82
2024/02/25 11:43:17;;;;;;;3.10;2.00;;;;;;;8.50;79.83;98407.47;4839888;29;20460;-81